Terminal Aerodrome Forecast
Issued by NWS Tuscon, AZ

Home | Current Version | Previous Version | Text Only | Print | Product List | Glossary On
Versions: 1 2 3 4 5 6 7 8 9 10 11 12 13
000
FTUS45 KTWC 061743
TAFTUS
TAF
KTUS 061743Z 0618/0718 20014G22KT P6SM FEW100
     FM062000 23021G32KT P6SM SCT100
     FM070100 24013G20KT P6SM SCT080
     FM070600 18007KT P6SM SCT070 OVC120=

USA.gov is the U.S. government's official web portal to all federal, state and local government web resources and services.